createdAt,value
2023-05-19T00:00:38.352Z,275.00
2023-05-19T00:01:38.315Z,275.00
2023-05-19T00:02:38.419Z,274.00
2023-05-19T00:03:38.449Z,273.00
2023-05-19T00:04:38.382Z,269.00
2023-05-19T00:05:38.427Z,270.00
2023-05-19T00:06:38.416Z,270.00
2023-05-19T00:07:38.426Z,268.00
2023-05-19T00:08:38.523Z,267.00
2023-05-19T00:09:38.470Z,268.00
2023-05-19T00:10:38.418Z,269.00
2023-05-19T00:11:39.097Z,268.00
2023-05-19T00:12:38.463Z,267.00
2023-05-19T00:13:38.446Z,267.00
2023-05-19T00:14:38.483Z,266.00
2023-05-19T00:15:38.554Z,266.00
2023-05-19T00:16:38.484Z,266.00
2023-05-19T00:17:38.529Z,266.00
2023-05-19T00:18:38.588Z,265.00
2023-05-19T00:19:38.544Z,265.00
2023-05-19T00:20:38.501Z,267.00
2023-05-19T00:21:38.494Z,267.00
2023-05-19T00:22:38.506Z,266.00
2023-05-19T00:23:38.518Z,266.00
2023-05-19T00:24:38.555Z,267.00
2023-05-19T00:25:38.546Z,265.00
2023-05-19T00:26:38.569Z,263.00
2023-05-19T00:27:38.585Z,265.00
2023-05-19T00:28:38.609Z,264.00
2023-05-19T00:29:38.612Z,265.00
2023-05-19T00:30:38.588Z,266.00
2023-05-19T00:31:38.650Z,268.00
2023-05-19T00:32:38.684Z,267.00
2023-05-19T00:33:38.668Z,267.00
2023-05-19T00:34:38.675Z,267.00
2023-05-19T00:35:38.628Z,268.00
2023-05-19T00:36:38.663Z,268.00
2023-05-19T00:37:38.694Z,270.00
2023-05-19T00:38:38.644Z,271.00
2023-05-19T00:39:38.676Z,272.00
2023-05-19T00:40:38.716Z,270.00
2023-05-19T00:41:38.695Z,270.00
2023-05-19T00:42:38.695Z,268.00
2023-05-19T00:43:38.709Z,267.00
2023-05-19T00:44:38.734Z,263.00
2023-05-19T00:45:38.758Z,265.00
2023-05-19T00:46:38.777Z,263.00
2023-05-19T00:47:38.854Z,260.00
2023-05-19T00:48:38.803Z,262.00
2023-05-19T00:49:38.805Z,262.00
2023-05-19T00:50:38.820Z,263.00
2023-05-19T00:51:38.836Z,265.00
2023-05-19T00:52:38.913Z,267.00
2023-05-19T00:53:38.873Z,268.00
2023-05-19T00:54:38.881Z,267.00
2023-05-19T00:55:38.906Z,268.00
2023-05-19T00:56:38.935Z,266.00
2023-05-19T00:57:38.968Z,265.00
2023-05-19T00:58:38.977Z,266.00
2023-05-19T00:59:38.973Z,265.00
2023-05-19T01:00:39.027Z,264.00
2023-05-19T01:01:39.081Z,265.00
2023-05-19T01:02:39.212Z,263.00
2023-05-19T01:03:39.158Z,262.00
2023-05-19T01:04:39.095Z,263.00
2023-05-19T01:05:39.087Z,260.00
2023-05-19T01:06:39.140Z,258.00
2023-05-19T01:07:39.128Z,256.00
2023-05-19T01:08:39.122Z,258.00
2023-05-19T01:09:39.142Z,259.00
2023-05-19T01:10:39.167Z,260.00
2023-05-19T01:11:39.191Z,260.00
2023-05-19T01:12:39.176Z,259.00
2023-05-19T01:13:41.930Z,260.00
2023-05-19T01:14:39.203Z,260.00
2023-05-19T01:15:39.202Z,260.00
2023-05-19T01:16:39.241Z,259.00
2023-05-19T01:17:39.204Z,259.00
2023-05-19T01:18:39.243Z,259.00
2023-05-19T01:19:39.164Z,259.00
2023-05-19T01:20:39.190Z,258.00
2023-05-19T01:21:39.183Z,258.00
2023-05-19T01:22:39.157Z,261.00
2023-05-19T01:23:39.153Z,262.00
2023-05-19T01:24:39.139Z,262.00
2023-05-19T01:25:39.156Z,262.00
2023-05-19T01:26:39.113Z,263.00
2023-05-19T01:27:39.141Z,260.00
2023-05-19T01:28:39.132Z,259.00
2023-05-19T01:29:39.108Z,258.00
2023-05-19T01:30:39.102Z,255.00
2023-05-19T01:31:39.117Z,254.00
2023-05-19T01:32:39.143Z,254.00
2023-05-19T01:33:39.077Z,256.00
2023-05-19T01:34:39.092Z,256.00
2023-05-19T01:35:39.112Z,256.00
2023-05-19T01:36:39.085Z,255.00
2023-05-19T01:37:39.048Z,254.00
2023-05-19T01:38:39.055Z,254.00
2023-05-19T01:39:39.049Z,251.00
2023-05-19T01:40:39.028Z,255.00
2023-05-19T01:41:39.037Z,259.00
2023-05-19T01:42:39.039Z,258.00
2023-05-19T01:43:39.050Z,259.00
2023-05-19T01:44:38.988Z,258.00
2023-05-19T01:45:39.026Z,260.00
2023-05-19T01:46:38.991Z,262.00
2023-05-19T01:47:39.004Z,262.00
2023-05-19T01:48:38.975Z,263.00
2023-05-19T01:49:38.987Z,263.00
2023-05-19T01:50:38.981Z,261.00
2023-05-19T01:51:38.925Z,261.00
2023-05-19T01:52:38.937Z,262.00
2023-05-19T01:53:38.942Z,261.00
2023-05-19T01:54:38.935Z,261.00
2023-05-19T01:55:38.961Z,259.00
2023-05-19T01:56:38.949Z,257.00
2023-05-19T01:57:38.958Z,259.00
2023-05-19T01:58:38.940Z,260.00
2023-05-19T01:59:38.953Z,261.00
2023-05-19T02:00:38.896Z,262.00
2023-05-19T02:01:38.983Z,262.00
2023-05-19T02:02:38.991Z,262.00
2023-05-19T02:03:38.881Z,262.00
2023-05-19T02:04:39.013Z,262.00
2023-05-19T02:05:38.894Z,261.00
2023-05-19T02:06:38.833Z,261.00
2023-05-19T02:07:38.909Z,260.00
2023-05-19T02:08:38.860Z,260.00
2023-05-19T02:09:38.871Z,258.00
2023-05-19T02:10:38.949Z,257.00
2023-05-19T02:11:38.849Z,258.00
2023-05-19T02:12:38.846Z,258.00
2023-05-19T02:13:38.854Z,258.00
2023-05-19T02:14:38.790Z,257.00
2023-05-19T02:15:38.946Z,257.00
2023-05-19T02:16:38.809Z,257.00
2023-05-19T02:17:38.870Z,257.00
2023-05-19T02:18:38.838Z,254.00
2023-05-19T02:19:38.773Z,255.00
2023-05-19T02:20:38.781Z,255.00
2023-05-19T02:21:38.814Z,255.00
2023-05-19T02:22:38.746Z,257.00
2023-05-19T02:23:38.801Z,257.00
2023-05-19T02:24:38.748Z,258.00
2023-05-19T02:25:38.775Z,256.00
2023-05-19T02:26:38.731Z,257.00
2023-05-19T02:27:38.678Z,258.00
2023-05-19T02:28:38.711Z,259.00
2023-05-19T02:29:38.727Z,261.00
2023-05-19T02:30:38.684Z,262.00
2023-05-19T02:31:38.768Z,261.00
2023-05-19T02:32:38.754Z,262.00
2023-05-19T02:33:38.675Z,263.00
2023-05-19T02:34:38.672Z,261.00
2023-05-19T02:35:38.684Z,262.00
2023-05-19T02:36:38.632Z,262.00
2023-05-19T02:37:38.698Z,265.00
2023-05-19T02:38:38.646Z,265.00
2023-05-19T02:39:38.647Z,267.00
2023-05-19T02:40:38.670Z,266.00
2023-05-19T02:41:38.653Z,265.00
2023-05-19T02:42:38.624Z,265.00
2023-05-19T02:43:38.636Z,265.00
2023-05-19T02:44:38.689Z,263.00
2023-05-19T02:45:38.691Z,261.00
2023-05-19T02:46:38.782Z,262.00
2023-05-19T02:47:38.804Z,263.00
2023-05-19T02:48:38.786Z,263.00
2023-05-19T02:49:38.775Z,263.00
2023-05-19T02:50:38.774Z,262.00
2023-05-19T02:51:38.846Z,263.00
2023-05-19T02:52:38.841Z,264.00
2023-05-19T02:53:38.840Z,263.00
2023-05-19T02:54:38.896Z,262.00
2023-05-19T02:55:38.920Z,263.00
2023-05-19T02:56:38.948Z,262.00
2023-05-19T02:57:39.000Z,262.00
2023-05-19T02:58:39.029Z,263.00
2023-05-19T02:59:39.047Z,263.00
2023-05-19T03:00:39.046Z,263.00
2023-05-19T03:01:39.164Z,262.00
2023-05-19T03:02:39.235Z,262.00
2023-05-19T03:03:39.237Z,262.00
2023-05-19T03:04:39.180Z,260.00
2023-05-19T03:05:39.215Z,260.00
2023-05-19T03:06:39.237Z,263.00
2023-05-19T03:07:39.325Z,263.00
2023-05-19T03:08:41.621Z,264.00
2023-05-19T03:09:39.302Z,265.00
2023-05-19T03:10:39.265Z,265.00
2023-05-19T03:11:39.264Z,263.00
2023-05-19T03:12:39.262Z,263.00
2023-05-19T03:13:39.260Z,262.00
2023-05-19T03:14:39.265Z,259.00
2023-05-19T03:15:39.260Z,257.00
2023-05-19T03:16:39.355Z,256.00
2023-05-19T03:17:39.298Z,259.00
2023-05-19T03:18:39.250Z,260.00
2023-05-19T03:19:39.223Z,262.00
2023-05-19T03:20:41.586Z,264.00
2023-05-19T03:21:39.264Z,265.00
2023-05-19T03:22:39.314Z,263.00
2023-05-19T03:23:39.364Z,263.00
2023-05-19T03:24:39.360Z,261.00
2023-05-19T03:25:39.429Z,261.00
2023-05-19T03:26:39.391Z,261.00
2023-05-19T03:27:39.416Z,261.00
2023-05-19T03:28:39.469Z,261.00
2023-05-19T03:29:39.465Z,264.00
2023-05-19T03:30:39.451Z,262.00
2023-05-19T03:31:39.489Z,261.00
2023-05-19T03:32:39.576Z,259.00
2023-05-19T03:33:39.608Z,260.00
2023-05-19T03:34:39.604Z,259.00
2023-05-19T03:35:39.609Z,261.00
2023-05-19T03:36:39.698Z,261.00
2023-05-19T03:37:39.652Z,260.00
2023-05-19T03:38:39.698Z,261.00
2023-05-19T03:39:39.761Z,262.00
2023-05-19T03:40:39.752Z,262.00
2023-05-19T03:41:39.822Z,263.00
2023-05-19T03:42:39.857Z,264.00
2023-05-19T03:43:39.869Z,267.00
2023-05-19T03:44:39.894Z,269.00
2023-05-19T03:45:40.046Z,268.00
2023-05-19T03:46:39.999Z,266.00
2023-05-19T03:47:39.993Z,263.00
2023-05-19T03:48:40.021Z,262.00
2023-05-19T03:49:40.031Z,261.00
2023-05-19T03:50:40.124Z,262.00
2023-05-19T03:51:40.128Z,263.00
2023-05-19T03:52:40.120Z,264.00
2023-05-19T03:53:40.145Z,263.00
2023-05-19T03:54:40.178Z,262.00
2023-05-19T03:55:40.244Z,263.00
2023-05-19T03:56:41.264Z,265.00
2023-05-19T03:57:40.289Z,264.00
2023-05-19T03:58:40.305Z,264.00
2023-05-19T03:59:40.343Z,264.00
2023-05-19T04:00:40.352Z,263.00
2023-05-19T04:01:40.412Z,265.00
2023-05-19T04:02:40.535Z,266.00
2023-05-19T04:03:40.580Z,264.00
2023-05-19T04:04:40.544Z,264.00
2023-05-19T04:05:40.535Z,263.00
2023-05-19T04:06:40.564Z,262.00
2023-05-19T04:07:40.577Z,265.00
2023-05-19T04:08:40.644Z,267.00
2023-05-19T04:09:40.657Z,272.00
2023-05-19T04:10:40.684Z,277.00
2023-05-19T04:11:40.789Z,278.00
2023-05-19T04:12:40.816Z,278.00
2023-05-19T04:13:40.806Z,279.00
2023-05-19T04:14:40.863Z,280.00
2023-05-19T04:15:40.945Z,281.00
2023-05-19T04:16:40.982Z,284.00
2023-05-19T04:17:41.071Z,285.00
2023-05-19T04:18:41.059Z,288.00
2023-05-19T04:19:41.062Z,290.00
2023-05-19T04:20:41.147Z,290.00
2023-05-19T04:21:41.244Z,291.00
2023-05-19T04:22:41.209Z,293.00
2023-05-19T04:23:41.190Z,291.00
2023-05-19T04:24:41.177Z,291.00
2023-05-19T04:25:41.182Z,291.00
2023-05-19T04:26:41.176Z,291.00
2023-05-19T04:27:41.207Z,291.00
2023-05-19T04:28:41.222Z,291.00
2023-05-19T04:29:41.241Z,293.00
2023-05-19T04:30:41.245Z,296.00
2023-05-19T04:31:41.346Z,298.00
2023-05-19T04:32:41.376Z,299.00
2023-05-19T04:33:41.364Z,299.00
2023-05-19T04:34:41.353Z,299.00
2023-05-19T04:35:41.410Z,300.00
2023-05-19T04:36:41.461Z,298.00
2023-05-19T04:37:41.462Z,300.00
2023-05-19T04:38:41.585Z,300.00
2023-05-19T04:39:41.585Z,301.00
2023-05-19T04:40:41.614Z,301.00
2023-05-19T04:41:41.618Z,299.00
2023-05-19T04:42:41.688Z,298.00
2023-05-19T04:43:41.913Z,297.00
2023-05-19T04:44:41.752Z,300.00
2023-05-19T04:45:41.768Z,297.00
2023-05-19T04:46:41.873Z,295.00
2023-05-19T04:47:41.915Z,294.00
2023-05-19T04:48:41.887Z,293.00
2023-05-19T04:49:41.904Z,293.00
2023-05-19T04:50:41.895Z,292.00
2023-05-19T04:51:41.977Z,290.00
2023-05-19T04:52:41.961Z,291.00
2023-05-19T04:53:41.981Z,291.00
2023-05-19T04:54:42.001Z,293.00
2023-05-19T04:55:41.978Z,293.00
2023-05-19T04:56:42.012Z,295.00
2023-05-19T04:57:42.039Z,294.00
2023-05-19T04:58:42.087Z,293.00
2023-05-19T04:59:42.136Z,293.00
2023-05-19T05:00:42.106Z,294.00
2023-05-19T05:01:42.108Z,294.00
2023-05-19T05:02:42.164Z,294.00
2023-05-19T05:03:42.229Z,296.00
2023-05-19T05:04:42.099Z,296.00
2023-05-19T05:05:42.117Z,295.00
2023-05-19T05:06:42.155Z,296.00
2023-05-19T05:07:42.123Z,296.00
2023-05-19T05:08:42.173Z,296.00
2023-05-19T05:09:42.185Z,297.00
2023-05-19T05:10:42.208Z,296.00
2023-05-19T05:11:42.188Z,297.00
2023-05-19T05:12:42.231Z,298.00
2023-05-19T05:13:42.273Z,299.00
2023-05-19T05:14:42.260Z,297.00
2023-05-19T05:15:42.250Z,298.00
2023-05-19T05:16:42.342Z,296.00
2023-05-19T05:17:42.354Z,295.00
2023-05-19T05:18:44.660Z,298.00
2023-05-19T05:19:42.310Z,300.00
2023-05-19T05:20:42.277Z,299.00
2023-05-19T05:21:42.289Z,299.00
2023-05-19T05:22:42.261Z,298.00
2023-05-19T05:23:42.273Z,298.00
2023-05-19T05:24:42.276Z,297.00
2023-05-19T05:25:42.243Z,297.00
2023-05-19T05:26:42.259Z,299.00
2023-05-19T05:27:42.227Z,300.00
2023-05-19T05:28:42.248Z,299.00
2023-05-19T05:29:42.196Z,298.00
2023-05-19T05:30:42.206Z,300.00
2023-05-19T05:31:42.217Z,298.00
2023-05-19T05:32:42.271Z,296.00
2023-05-19T05:33:42.289Z,295.00
2023-05-19T05:34:42.180Z,292.00
2023-05-19T05:35:42.214Z,290.00
2023-05-19T05:36:42.195Z,290.00
2023-05-19T05:37:42.186Z,290.00
2023-05-19T05:38:42.159Z,291.00
2023-05-19T05:39:42.144Z,291.00
2023-05-19T05:40:42.173Z,290.00
2023-05-19T05:41:42.142Z,290.00
2023-05-19T05:42:42.132Z,290.00
2023-05-19T05:43:42.132Z,290.00
2023-05-19T05:44:42.143Z,291.00
2023-05-19T05:45:42.149Z,293.00
2023-05-19T05:46:42.139Z,294.00
2023-05-19T05:47:42.203Z,294.00
2023-05-19T05:48:42.136Z,293.00
2023-05-19T05:49:42.135Z,292.00
2023-05-19T05:50:42.087Z,291.00
2023-05-19T05:51:46.335Z,291.00
2023-05-19T05:52:43.089Z,291.00
2023-05-19T05:53:42.064Z,291.00
2023-05-19T05:54:42.082Z,292.00
2023-05-19T05:55:42.044Z,294.00
2023-05-19T05:56:42.067Z,291.00
2023-05-19T05:57:42.048Z,291.00
2023-05-19T05:58:42.067Z,292.00
2023-05-19T05:59:42.000Z,291.00
2023-05-19T06:00:42.050Z,288.00
2023-05-19T06:01:42.026Z,287.00
2023-05-19T06:02:42.115Z,288.00
2023-05-19T06:03:42.064Z,289.00
2023-05-19T06:04:41.986Z,288.00
2023-05-19T06:05:42.020Z,289.00
2023-05-19T06:06:42.002Z,288.00
2023-05-19T06:07:41.997Z,286.00
2023-05-19T06:08:41.973Z,286.00
2023-05-19T06:09:41.972Z,287.00
2023-05-19T06:10:41.979Z,286.00
2023-05-19T06:11:41.949Z,285.00
2023-05-19T06:12:41.989Z,283.00
2023-05-19T06:13:41.935Z,283.00
2023-05-19T06:14:41.973Z,281.00
2023-05-19T06:15:41.928Z,282.00
2023-05-19T06:16:42.043Z,281.00
2023-05-19T06:17:41.968Z,279.00
2023-05-19T06:18:41.918Z,280.00
2023-05-19T06:19:41.980Z,283.00
2023-05-19T06:20:42.022Z,283.00
2023-05-19T06:21:42.039Z,280.00
2023-05-19T06:22:42.101Z,279.00
2023-05-19T06:23:42.173Z,281.00
2023-05-19T06:24:42.181Z,282.00
2023-05-19T06:25:42.266Z,282.00
2023-05-19T06:26:42.265Z,282.00
2023-05-19T06:27:42.342Z,283.00
2023-05-19T06:28:42.348Z,283.00
2023-05-19T06:29:42.407Z,283.00
2023-05-19T06:30:42.429Z,282.00
2023-05-19T06:31:42.530Z,284.00
2023-05-19T06:32:42.545Z,285.00
2023-05-19T06:33:42.527Z,283.00
2023-05-19T06:34:42.620Z,282.00
2023-05-19T06:35:42.649Z,283.00
2023-05-19T06:36:42.668Z,281.00
2023-05-19T06:37:42.748Z,281.00
2023-05-19T06:38:42.794Z,281.00
2023-05-19T06:39:42.817Z,280.00
2023-05-19T06:40:42.869Z,281.00
2023-05-19T06:41:42.909Z,283.00
2023-05-19T06:42:42.957Z,283.00
2023-05-19T06:43:42.990Z,282.00
2023-05-19T06:44:43.078Z,282.00
2023-05-19T06:45:43.068Z,279.00
2023-05-19T06:46:43.162Z,279.00
2023-05-19T06:47:43.245Z,279.00
2023-05-19T06:48:43.178Z,279.00
2023-05-19T06:49:43.207Z,282.00
2023-05-19T06:50:43.210Z,286.00
2023-05-19T06:51:43.238Z,285.00
2023-05-19T06:52:43.216Z,284.00
2023-05-19T06:53:43.233Z,286.00
2023-05-19T06:54:43.224Z,286.00
2023-05-19T06:55:57.455Z,284.00
2023-05-19T06:56:44.246Z,281.00
2023-05-19T06:57:43.216Z,281.00
2023-05-19T06:58:43.254Z,282.00
2023-05-19T06:59:43.220Z,283.00
2023-05-19T07:00:43.200Z,282.00
2023-05-19T07:01:43.297Z,282.00
2023-05-19T07:02:43.277Z,282.00
2023-05-19T07:03:43.217Z,282.00
2023-05-19T07:04:43.285Z,284.00
2023-05-19T07:05:43.183Z,282.00
2023-05-19T07:06:43.171Z,280.00
2023-05-19T07:07:43.179Z,280.00
2023-05-19T07:08:43.171Z,281.00
2023-05-19T07:09:43.193Z,282.00
2023-05-19T07:10:43.146Z,282.00
2023-05-19T07:11:43.180Z,278.00
2023-05-19T07:12:43.124Z,278.00
2023-05-19T07:13:43.118Z,279.00
2023-05-19T07:14:43.085Z,279.00
2023-05-19T07:15:43.137Z,281.00
2023-05-19T07:16:43.170Z,282.00
2023-05-19T07:17:43.196Z,281.00
2023-05-19T07:18:43.172Z,280.00
2023-05-19T07:19:43.169Z,279.00
2023-05-19T07:20:43.056Z,276.00
2023-05-19T07:21:43.077Z,276.00
2023-05-19T07:22:43.032Z,274.00
2023-05-19T07:23:43.056Z,273.00
2023-05-19T07:24:43.045Z,274.00
2023-05-19T07:25:43.017Z,275.00
2023-05-19T07:26:43.032Z,275.00
2023-05-19T07:27:43.009Z,278.00
2023-05-19T07:28:43.029Z,276.00
2023-05-19T07:29:42.985Z,276.00
2023-05-19T07:30:43.020Z,275.00
2023-05-19T07:31:43.037Z,275.00
2023-05-19T07:32:43.035Z,275.00
2023-05-19T07:33:43.009Z,274.00
2023-05-19T07:34:42.976Z,274.00
2023-05-19T07:35:42.952Z,273.00
2023-05-19T07:36:43.080Z,276.00
2023-05-19T07:37:42.947Z,277.00
2023-05-19T07:38:43.014Z,278.00
2023-05-19T07:39:42.953Z,275.00
2023-05-19T07:40:42.911Z,277.00
2023-05-19T07:41:42.966Z,277.00
2023-05-19T07:42:42.897Z,277.00
2023-05-19T07:43:42.924Z,277.00
2023-05-19T07:44:42.898Z,275.00
2023-05-19T07:45:42.969Z,276.00
2023-05-19T07:46:42.889Z,278.00
2023-05-19T07:47:42.941Z,279.00
2023-05-19T07:48:42.900Z,278.00
2023-05-19T07:49:42.987Z,276.00
2023-05-19T07:50:43.028Z,277.00
2023-05-19T07:51:43.028Z,276.00
2023-05-19T07:52:43.068Z,274.00
2023-05-19T07:53:43.116Z,275.00
2023-05-19T07:54:43.143Z,276.00
2023-05-19T07:55:43.188Z,276.00
2023-05-19T07:56:43.236Z,276.00
2023-05-19T07:57:43.325Z,275.00
2023-05-19T07:58:43.405Z,274.00
2023-05-19T07:59:43.397Z,274.00
2023-05-19T08:00:43.501Z,272.00
2023-05-19T08:01:43.514Z,271.00
2023-05-19T08:02:43.647Z,273.00
2023-05-19T08:03:43.772Z,275.00
2023-05-19T08:04:43.781Z,277.00
2023-05-19T08:05:43.738Z,280.00
2023-05-19T08:06:43.818Z,280.00
2023-05-19T08:07:43.892Z,281.00
2023-05-19T08:08:43.929Z,279.00
2023-05-19T08:09:44.012Z,278.00
2023-05-19T08:10:44.063Z,276.00
2023-05-19T08:11:44.125Z,276.00
2023-05-19T08:12:44.207Z,276.00
2023-05-19T08:13:44.239Z,274.00
2023-05-19T08:14:44.279Z,273.00
2023-05-19T08:15:44.341Z,274.00
2023-05-19T08:16:44.404Z,273.00
2023-05-19T08:17:44.477Z,275.00
2023-05-19T08:18:44.601Z,276.00
2023-05-19T08:19:44.545Z,275.00
2023-05-19T08:20:44.583Z,273.00
2023-05-19T08:21:44.745Z,270.00
2023-05-19T08:22:44.673Z,272.00
2023-05-19T08:23:44.726Z,273.00
2023-05-19T08:24:44.851Z,273.00
2023-05-19T08:25:44.812Z,272.00
2023-05-19T08:26:44.873Z,269.00
2023-05-19T08:27:44.880Z,271.00
2023-05-19T08:28:44.940Z,271.00
2023-05-19T08:29:44.982Z,273.00
2023-05-19T08:30:45.010Z,275.00
2023-05-19T08:31:45.089Z,277.00
2023-05-19T08:32:45.101Z,277.00
2023-05-19T08:33:45.113Z,278.00
2023-05-19T08:34:45.103Z,276.00
2023-05-19T08:35:45.133Z,275.00
2023-05-19T08:36:45.182Z,276.00
2023-05-19T08:37:45.180Z,276.00
2023-05-19T08:38:45.195Z,274.00
2023-05-19T08:39:45.237Z,274.00
2023-05-19T08:40:45.244Z,274.00
2023-05-19T08:41:45.259Z,273.00
2023-05-19T08:42:45.292Z,273.00
2023-05-19T08:43:45.313Z,273.00
2023-05-19T08:44:45.324Z,274.00
2023-05-19T08:45:45.304Z,272.00
2023-05-19T08:46:45.309Z,273.00
2023-05-19T08:47:45.350Z,274.00
2023-05-19T08:48:45.365Z,273.00
2023-05-19T08:49:45.345Z,274.00
2023-05-19T08:50:45.325Z,274.00
2023-05-19T08:51:45.381Z,273.00
2023-05-19T08:52:47.864Z,275.00
2023-05-19T08:53:45.363Z,276.00
2023-05-19T08:54:45.362Z,277.00
2023-05-19T08:55:45.347Z,275.00
2023-05-19T08:56:45.344Z,276.00
2023-05-19T08:57:45.333Z,277.00
2023-05-19T08:58:45.329Z,276.00
2023-05-19T08:59:45.296Z,276.00
2023-05-19T09:00:45.309Z,275.00
2023-05-19T09:01:45.464Z,275.00
2023-05-19T09:02:55.070Z,274.00
2023-05-19T09:03:46.428Z,274.00
2023-05-19T09:04:45.337Z,272.00
2023-05-19T09:05:45.305Z,273.00
2023-05-19T09:06:45.380Z,274.00
2023-05-19T09:07:45.269Z,276.00
2023-05-19T09:08:45.284Z,276.00
2023-05-19T09:09:45.225Z,275.00
2023-05-19T09:10:45.261Z,275.00
2023-05-19T09:11:45.233Z,274.00
2023-05-19T09:12:45.248Z,276.00
2023-05-19T09:13:45.231Z,277.00
2023-05-19T09:14:45.221Z,276.00
2023-05-19T09:15:45.201Z,274.00
2023-05-19T09:16:45.222Z,274.00
2023-05-19T09:17:45.198Z,274.00
2023-05-19T09:18:45.234Z,274.00
2023-05-19T09:19:45.192Z,274.00
2023-05-19T09:20:45.230Z,275.00
2023-05-19T09:21:45.190Z,276.00
2023-05-19T09:22:45.168Z,275.00
2023-05-19T09:23:45.184Z,275.00
2023-05-19T09:24:45.217Z,274.00
2023-05-19T09:25:45.149Z,273.00
2023-05-19T09:26:45.144Z,276.00
2023-05-19T09:27:45.138Z,273.00
2023-05-19T09:28:45.125Z,274.00
2023-05-19T09:29:45.167Z,273.00
2023-05-19T09:30:45.186Z,273.00
2023-05-19T09:31:45.281Z,272.00
2023-05-19T09:32:45.386Z,274.00
2023-05-19T09:33:46.209Z,275.00
2023-05-19T09:34:45.426Z,276.00
2023-05-19T09:35:45.478Z,275.00
2023-05-19T09:36:45.513Z,276.00
2023-05-19T09:37:45.573Z,277.00
2023-05-19T09:38:45.658Z,274.00
2023-05-19T09:39:45.715Z,273.00
2023-05-19T09:40:45.801Z,274.00
2023-05-19T09:41:45.828Z,274.00
2023-05-19T09:42:45.853Z,275.00
2023-05-19T09:43:45.944Z,276.00
2023-05-19T09:44:45.973Z,276.00
2023-05-19T09:45:46.081Z,277.00
2023-05-19T09:46:46.137Z,277.00
2023-05-19T09:47:46.218Z,278.00
2023-05-19T09:48:46.188Z,278.00
2023-05-19T09:49:46.217Z,277.00
2023-05-19T09:50:46.248Z,278.00
2023-05-19T09:51:46.296Z,278.00
2023-05-19T09:52:46.361Z,276.00
2023-05-19T09:53:46.395Z,276.00
2023-05-19T09:54:46.432Z,274.00
2023-05-19T09:55:46.466Z,273.00
2023-05-19T09:56:46.500Z,274.00
2023-05-19T09:57:46.529Z,272.00
2023-05-19T09:58:46.539Z,273.00
2023-05-19T09:59:46.577Z,274.00
2023-05-19T10:00:46.594Z,272.00
2023-05-19T10:01:46.753Z,272.00
2023-05-19T10:02:46.682Z,273.00
2023-05-19T10:03:46.668Z,272.00
2023-05-19T10:04:46.795Z,273.00
2023-05-19T10:05:46.764Z,270.00
2023-05-19T10:06:46.735Z,269.00
2023-05-19T10:07:46.777Z,270.00
2023-05-19T10:08:46.805Z,270.00
2023-05-19T10:09:46.810Z,269.00
2023-05-19T10:10:46.816Z,268.00
2023-05-19T10:11:46.886Z,270.00
2023-05-19T10:12:46.884Z,268.00
2023-05-19T10:13:46.892Z,269.00
2023-05-19T10:14:46.912Z,268.00
2023-05-19T10:16:47.997Z,269.00
2023-05-19T10:17:46.925Z,269.00
2023-05-19T10:18:46.973Z,268.00
2023-05-19T10:19:46.888Z,269.00
2023-05-19T10:20:46.858Z,270.00
2023-05-19T10:21:46.890Z,269.00
2023-05-19T10:22:46.885Z,267.00
2023-05-19T10:23:46.914Z,266.00
2023-05-19T10:24:46.862Z,265.00
2023-05-19T10:25:46.875Z,262.00
2023-05-19T10:26:46.880Z,261.00
2023-05-19T10:27:46.807Z,263.00
2023-05-19T10:28:46.883Z,262.00
2023-05-19T10:29:46.822Z,260.00
2023-05-19T10:30:46.830Z,262.00
2023-05-19T10:31:46.845Z,266.00
2023-05-19T10:32:46.875Z,266.00
2023-05-19T10:33:46.812Z,266.00
2023-05-19T10:34:46.825Z,265.00
2023-05-19T10:35:47.307Z,265.00
2023-05-19T10:36:46.774Z,265.00
2023-05-19T10:37:46.797Z,264.00
2023-05-19T10:38:46.757Z,265.00
2023-05-19T10:39:46.824Z,264.00
2023-05-19T10:40:46.771Z,264.00
2023-05-19T10:41:47.094Z,264.00
2023-05-19T10:42:46.740Z,263.00
2023-05-19T10:43:46.729Z,263.00
2023-05-19T10:44:46.743Z,264.00
2023-05-19T10:45:46.718Z,264.00
2023-05-19T10:46:46.742Z,265.00
2023-05-19T10:47:46.763Z,266.00
2023-05-19T10:48:46.703Z,266.00
2023-05-19T10:49:46.676Z,265.00
2023-05-19T10:50:46.697Z,265.00
2023-05-19T10:51:46.690Z,266.00
2023-05-19T10:52:46.699Z,263.00
2023-05-19T10:53:46.754Z,265.00
2023-05-19T10:54:46.738Z,263.00
2023-05-19T10:55:46.711Z,263.00
2023-05-19T10:56:46.728Z,264.00
2023-05-19T10:57:46.724Z,265.00
2023-05-19T10:58:46.749Z,265.00
2023-05-19T10:59:46.739Z,264.00
2023-05-19T11:00:46.798Z,263.00
2023-05-19T11:01:46.810Z,262.00
2023-05-19T11:02:46.805Z,264.00
2023-05-19T11:03:46.860Z,265.00
2023-05-19T11:04:48.892Z,265.00
2023-05-19T11:05:46.790Z,264.00
2023-05-19T11:06:46.800Z,264.00
2023-05-19T11:07:46.796Z,264.00
2023-05-19T11:08:46.806Z,262.00
2023-05-19T11:09:46.755Z,262.00
2023-05-19T11:10:46.766Z,262.00
2023-05-19T11:11:46.802Z,263.00
2023-05-19T11:12:46.804Z,264.00
2023-05-19T11:13:46.791Z,263.00
2023-05-19T11:14:46.750Z,260.00
2023-05-19T11:15:46.753Z,260.00
2023-05-19T11:16:46.900Z,259.00
2023-05-19T11:17:46.756Z,260.00
2023-05-19T11:18:46.799Z,259.00
2023-05-19T11:19:46.731Z,257.00
2023-05-19T11:20:46.784Z,257.00
2023-05-19T11:21:46.746Z,255.00
2023-05-19T11:22:46.689Z,254.00
2023-05-19T11:23:46.778Z,257.00
2023-05-19T11:24:46.721Z,256.00
2023-05-19T11:25:46.822Z,257.00
2023-05-19T11:26:46.892Z,258.00
2023-05-19T11:27:46.883Z,258.00
2023-05-19T11:28:46.949Z,258.00
2023-05-19T11:29:47.007Z,259.00
2023-05-19T11:30:47.053Z,260.00
2023-05-19T11:31:47.121Z,262.00
2023-05-19T11:32:47.145Z,264.00
2023-05-19T11:33:47.179Z,266.00
2023-05-19T11:34:47.260Z,266.00
2023-05-19T11:35:47.286Z,264.00
2023-05-19T11:36:47.369Z,264.00
2023-05-19T11:37:47.407Z,265.00
2023-05-19T11:38:47.467Z,263.00
2023-05-19T11:39:47.471Z,264.00
2023-05-19T11:40:47.552Z,266.00
2023-05-19T11:41:47.594Z,266.00
2023-05-19T11:42:47.641Z,267.00
2023-05-19T11:43:47.681Z,266.00
2023-05-19T11:44:47.710Z,264.00
2023-05-19T11:45:47.778Z,265.00
2023-05-19T11:46:47.997Z,265.00
2023-05-19T11:48:01.255Z,264.00
2023-05-19T11:48:48.871Z,266.00
2023-05-19T11:49:47.854Z,264.00
2023-05-19T11:50:47.828Z,262.00
2023-05-19T11:51:47.879Z,261.00
2023-05-19T11:52:47.860Z,262.00
2023-05-19T11:53:47.816Z,260.00
2023-05-19T11:54:47.830Z,257.00
2023-05-19T11:55:48.381Z,258.00
2023-05-19T11:56:47.845Z,259.00
2023-05-19T11:58:02.569Z,259.00
2023-05-19T11:58:48.832Z,260.00
2023-05-19T11:59:47.824Z,261.00
2023-05-19T12:00:48.174Z,263.00
2023-05-19T12:01:47.763Z,264.00
2023-05-19T12:02:47.829Z,261.00
2023-05-19T12:03:47.948Z,263.00
2023-05-19T12:04:47.793Z,263.00
2023-05-19T12:05:48.384Z,262.00
2023-05-19T12:06:47.841Z,263.00
2023-05-19T12:07:47.763Z,261.00
2023-05-19T12:08:47.707Z,259.00
2023-05-19T12:09:47.722Z,258.00
2023-05-19T12:10:47.737Z,259.00
2023-05-19T12:11:47.758Z,258.00
2023-05-19T12:12:47.794Z,260.00
2023-05-19T12:13:47.903Z,260.00
2023-05-19T12:14:47.912Z,261.00
2023-05-19T12:15:48.027Z,262.00
2023-05-19T12:16:48.076Z,262.00
2023-05-19T12:17:48.071Z,262.00
2023-05-19T12:18:48.094Z,261.00
2023-05-19T12:19:48.177Z,261.00
2023-05-19T12:20:48.197Z,261.00
2023-05-19T12:21:48.306Z,259.00
2023-05-19T12:22:48.323Z,259.00
2023-05-19T12:23:48.409Z,258.00
2023-05-19T12:24:48.447Z,258.00
2023-05-19T12:25:48.461Z,261.00
2023-05-19T12:26:48.555Z,261.00
2023-05-19T12:27:48.566Z,260.00
2023-05-19T12:28:48.633Z,259.00
2023-05-19T12:29:48.682Z,258.00